Time;durP1;ratioP1;P1;durP2;ratioP2;P2;SDS_P1;SDS_P2;PMS_P1;PMS_P2;Temp;Humidity;BMP_temperature;BMP_pressure;BME280_temperature;BME280_humidity;BME280_pressure;Samples;Min_cycle;Max_cycle;Signal;HPM_P1;HPM_P2
2021/11/23 00:00:18;;;;;;;15.90;8.52;;;;;;;10.11;58.33;102356.00;4841210;29;20034;-96
2021/11/23 00:02:44;;;;;;;15.95;7.75;;;;;;;10.31;58.08;102357.97;4841190;29;20026;-95
2021/11/23 00:05:11;;;;;;;17.80;9.30;;;;;;;10.26;57.96;102354.59;4840024;29;20106;-96
2021/11/23 00:07:37;;;;;;;18.45;8.55;;;;;;;10.41;57.89;102357.66;4840994;29;20065;-96
2021/11/23 00:10:04;;;;;;;13.77;8.38;;;;;;;10.44;57.44;102345.25;4841224;29;20053;-96
2021/11/23 00:12:30;;;;;;;12.98;8.30;;;;;;;10.15;57.86;102343.66;4840996;29;20048;-96
2021/11/23 00:14:55;;;;;;;15.23;8.18;;;;;;;10.06;58.27;102344.81;4841173;29;20026;-96
2021/11/23 00:17:21;;;;;;;11.55;7.35;;;;;;;10.18;58.03;102346.16;4840721;29;20033;-96
2021/11/23 00:19:46;;;;;;;13.23;7.43;;;;;;;10.31;57.96;102342.22;4840792;29;20059;-96
2021/11/23 00:22:12;;;;;;;22.77;8.32;;;;;;;10.21;58.02;102332.94;4840231;29;20034;-96
2021/11/23 00:24:38;;;;;;;13.82;7.80;;;;;;;10.26;58.11;102344.09;4840321;29;20037;-96
2021/11/23 00:27:04;;;;;;;16.35;8.15;;;;;;;10.17;58.06;102339.19;4840545;29;20569;-96
2021/11/23 00:29:31;;;;;;;11.30;7.20;;;;;;;10.12;58.68;102336.72;4840439;29;20117;-96
2021/11/23 00:31:56;;;;;;;16.02;7.63;;;;;;;10.02;58.15;102335.31;4840246;29;20030;-96
2021/11/23 00:34:21;;;;;;;19.23;7.97;;;;;;;10.10;58.12;102335.91;4840303;29;20041;-96
2021/11/23 00:36:47;;;;;;;17.23;7.75;;;;;;;10.13;58.03;102329.72;4839418;29;20030;-95
2021/11/23 00:39:13;;;;;;;21.17;6.97;;;;;;;10.05;57.86;102321.22;4840309;29;20030;-96
2021/11/23 00:41:38;;;;;;;14.93;7.70;;;;;;;9.92;57.34;102321.66;4840458;29;20078;-96
2021/11/23 00:44:04;;;;;;;19.77;8.43;;;;;;;9.78;57.17;102318.66;4841676;29;20058;-96
2021/11/23 00:46:29;;;;;;;15.18;7.97;;;;;;;9.71;56.98;102330.25;4840141;29;20561;-96
2021/11/23 00:48:55;;;;;;;15.77;8.63;;;;;;;9.66;57.64;102324.34;4840045;29;20438;-96
2021/11/23 00:51:20;;;;;;;21.83;8.27;;;;;;;9.65;57.11;102320.84;4839790;29;20065;-96
2021/11/23 00:53:46;;;;;;;16.88;8.52;;;;;;;9.32;58.05;102320.16;4840173;29;20070;-96
2021/11/23 00:56:11;;;;;;;19.65;9.05;;;;;;;9.27;57.31;102332.59;4840376;29;20392;-96
2021/11/23 00:58:36;;;;;;;15.77;8.45;;;;;;;9.06;57.74;102332.34;4840321;29;20448;-96
2021/11/23 01:01:03;;;;;;;14.23;8.45;;;;;;;8.86;57.75;102326.84;4840212;29;20456;-96
2021/11/23 01:03:32;;;;;;;18.83;8.68;;;;;;;8.50;58.02;102330.50;4840412;29;20452;-95
2021/11/23 01:05:58;;;;;;;15.85;8.68;;;;;;;8.59;57.94;102328.50;4839353;29;20026;-96
2021/11/23 01:08:24;;;;;;;16.58;8.77;;;;;;;8.57;58.49;102331.19;4840058;29;20026;-96
2021/11/23 01:10:51;;;;;;;18.48;9.60;;;;;;;8.50;58.67;102332.25;4840213;29;20391;-96
2021/11/23 01:13:16;;;;;;;17.27;8.45;;;;;;;8.48;57.97;102334.91;4839974;29;20026;-96
2021/11/23 01:15:42;;;;;;;18.05;8.88;;;;;;;8.45;58.39;102332.41;4841222;29;20042;-95
2021/11/23 01:18:07;;;;;;;12.45;7.60;;;;;;;8.41;58.88;102330.78;4843423;29;20109;-95
2021/11/23 01:20:33;;;;;;;16.20;8.43;;;;;;;8.34;58.36;102323.94;4842929;29;20033;-96
2021/11/23 01:22:58;;;;;;;14.50;7.30;;;;;;;8.29;58.91;102328.44;4843159;29;20033;-96
2021/11/23 01:25:26;;;;;;;17.25;9.05;;;;;;;8.10;59.18;102342.03;4843213;29;20057;-96
2021/11/23 01:27:52;;;;;;;19.30;9.75;;;;;;;8.09;59.50;102339.47;4843166;29;20082;-95
2021/11/23 01:30:17;;;;;;;14.25;7.95;;;;;;;8.11;59.64;102329.81;4843108;29;20030;-96
2021/11/23 01:32:43;;;;;;;14.40;9.63;;;;;;;8.03;59.23;102334.38;4842914;29;20044;-96
2021/11/23 01:35:14;;;;;;;15.55;8.27;;;;;;;8.07;59.18;102329.03;4842673;29;20037;-96
2021/11/23 01:37:43;;;;;;;17.75;10.10;;;;;;;7.95;59.37;102324.97;4842327;29;20386;-95
2021/11/23 01:40:09;;;;;;;15.05;9.82;;;;;;;7.88;59.16;102323.44;4842591;29;20034;-96
2021/11/23 01:42:35;;;;;;;18.80;9.30;;;;;;;7.95;59.30;102321.50;4842839;29;20175;-95
2021/11/23 01:45:01;;;;;;;21.40;9.93;;;;;;;7.97;59.44;102321.47;4843089;29;20128;-96
2021/11/23 01:47:26;;;;;;;15.50;8.48;;;;;;;7.95;59.30;102314.50;4842847;29;20037;-95
2021/11/23 01:49:52;;;;;;;15.32;8.45;;;;;;;7.93;59.38;102311.06;4842692;29;20038;-96
2021/11/23 01:52:17;;;;;;;14.88;7.93;;;;;;;7.97;59.13;102304.00;4842486;29;20037;-95
2021/11/23 01:54:43;;;;;;;16.25;7.65;;;;;;;7.99;59.76;102296.13;4842574;29;20038;-95
2021/11/23 01:57:09;;;;;;;11.50;7.13;;;;;;;7.93;59.74;102303.22;4842251;29;20485;-96
2021/11/23 01:59:34;;;;;;;11.57;7.28;;;;;;;8.04;58.99;102299.50;4842820;29;20030;-96
2021/11/23 02:02:00;;;;;;;13.23;6.78;;;;;;;8.10;58.84;102296.72;4842532;29;20030;-95
2021/11/23 02:04:25;;;;;;;13.57;7.00;;;;;;;8.10;58.70;102294.09;4842390;29;20050;-96
2021/11/23 02:06:51;;;;;;;10.77;7.45;;;;;;;8.11;58.70;102301.03;4842217;29;20038;-96
2021/11/23 02:09:16;;;;;;;15.98;6.90;;;;;;;8.06;58.63;102303.78;4842312;29;20032;-95
2021/11/23 02:11:43;;;;;;;13.63;7.55;;;;;;;8.06;58.41;102305.53;4841482;29;20541;-95
2021/11/23 02:14:08;;;;;;;11.85;6.28;;;;;;;8.03;59.06;102310.84;4841795;29;20124;-96
2021/11/23 02:16:34;;;;;;;13.10;6.63;;;;;;;7.95;58.51;102293.59;4842152;29;20117;-94
2021/11/23 02:19:00;;;;;;;11.23;7.07;;;;;;;7.91;58.88;102299.78;4841977;29;20041;-96
2021/11/23 02:21:26;;;;;;;9.43;6.30;;;;;;;7.88;58.84;102305.13;4841924;29;20040;-95
2021/11/23 02:23:51;;;;;;;10.88;6.38;;;;;;;7.87;58.90;102305.16;4841992;29;20125;-96
2021/11/23 02:26:17;;;;;;;11.15;6.38;;;;;;;7.84;58.48;102307.84;4841686;29;20022;-96
2021/11/23 02:28:42;;;;;;;10.82;6.25;;;;;;;7.75;58.90;102301.09;4841008;29;20082;-95
2021/11/23 02:31:09;;;;;;;10.93;6.35;;;;;;;7.75;59.52;102306.34;4842203;29;20034;-96
2021/11/23 02:33:36;;;;;;;9.63;5.60;;;;;;;7.83;59.29;102307.00;4841948;29;20030;-96
2021/11/23 02:36:05;;;;;;;10.00;6.45;;;;;;;7.81;59.00;102303.56;4841672;29;20036;-95
2021/11/23 02:38:31;;;;;;;11.98;5.72;;;;;;;7.84;59.57;102300.00;4841902;29;20030;-95
2021/11/23 02:40:57;;;;;;;7.57;4.53;;;;;;;7.82;60.04;102294.84;4842021;29;20030;-95
2021/11/23 02:43:23;;;;;;;7.68;4.03;;;;;;;7.82;59.45;102294.84;4841953;29;20022;-95
2021/11/23 02:45:50;;;;;;;6.55;3.92;;;;;;;7.87;59.45;102302.53;4841346;29;20507;-95
2021/11/23 02:48:15;;;;;;;9.65;5.10;;;;;;;7.87;59.45;102303.41;4841619;29;20496;-95
2021/11/23 02:50:46;;;;;;;8.98;4.32;;;;;;;7.84;59.10;102295.66;4841661;29;20030;-95
2021/11/23 02:53:12;;;;;;;10.07;5.40;;;;;;;7.82;59.12;102294.84;4841495;29;20037;-95
2021/11/23 02:55:37;;;;;;;13.30;7.25;;;;;;;7.85;59.50;102294.72;4842806;29;20034;-96
2021/11/23 02:58:06;;;;;;;8.27;5.95;;;;;;;7.75;59.48;102286.28;4841306;29;20511;-96
2021/11/23 03:00:32;;;;;;;13.98;6.13;;;;;;;7.79;59.64;102294.03;4840925;29;20171;-95
2021/11/23 03:02:58;;;;;;;11.45;6.22;;;;;;;7.71;58.80;102282.03;4841368;29;20037;-96
2021/11/23 03:05:26;;;;;;;12.20;6.03;;;;;;;7.75;58.93;102274.97;4841614;29;20030;-96
2021/11/23 03:07:52;;;;;;;12.32;6.25;;;;;;;7.69;58.92;102272.50;4841363;29;20022;-96
2021/11/23 03:10:20;;;;;;;10.63;6.93;;;;;;;7.69;59.45;102278.59;4841366;29;20033;-96
2021/11/23 03:12:48;;;;;;;9.32;6.03;;;;;;;7.70;59.22;102280.31;4841388;29;20480;-96
2021/11/23 03:15:14;;;;;;;11.35;5.93;;;;;;;7.71;59.00;102271.56;4841989;29;20037;-96
2021/11/23 03:17:41;;;;;;;10.23;5.70;;;;;;;7.68;59.17;102276.88;4842512;29;20026;-96
2021/11/23 03:20:08;;;;;;;7.55;5.13;;;;;;;7.58;59.26;102274.53;4841231;29;20026;-96
2021/11/23 03:22:34;;;;;;;9.45;5.35;;;;;;;7.77;59.16;102277.53;4841258;29;20033;-96
2021/11/23 03:25:00;;;;;;;9.40;5.60;;;;;;;7.81;58.79;102277.41;4841395;29;20389;-96
2021/11/23 03:27:25;;;;;;;17.30;7.47;;;;;;;7.81;58.37;102280.03;4841077;29;20082;-96
2021/11/23 03:29:51;;;;;;;12.77;6.68;;;;;;;7.88;58.46;102273.75;4840667;29;20076;-96
2021/11/23 03:32:18;;;;;;;14.02;7.10;;;;;;;7.73;59.16;102276.75;4840844;29;20057;-96
2021/11/23 03:34:44;;;;;;;14.98;7.45;;;;;;;7.65;58.47;102273.50;4841430;29;20082;-96
2021/11/23 03:37:16;;;;;;;9.27;5.45;;;;;;;7.52;58.77;102280.75;4842432;29;20041;-96
2021/11/23 03:39:42;;;;;;;11.48;4.95;;;;;;;7.53;58.71;102283.34;4840969;29;20030;-96
2021/11/23 03:42:08;;;;;;;6.57;4.47;;;;;;;7.57;58.43;102280.66;4841148;29;20037;-96
2021/11/23 03:44:35;;;;;;;8.75;5.20;;;;;;;7.45;58.25;102280.06;4840773;29;20500;-96
2021/11/23 03:47:03;;;;;;;10.60;5.88;;;;;;;7.43;58.42;102274.03;4841052;29;20034;-96
2021/11/23 03:49:28;;;;;;;8.65;5.63;;;;;;;7.37;58.53;102270.72;4840566;29;20061;-95
2021/11/23 03:51:55;;;;;;;11.05;6.30;;;;;;;7.38;58.73;102265.44;4839138;29;20121;-96
2021/11/23 03:54:21;;;;;;;14.02;6.22;;;;;;;7.32;58.77;102261.22;4841620;29;20090;-96
2021/11/23 03:56:47;;;;;;;12.27;6.75;;;;;;;7.31;58.40;102262.13;4841865;29;20034;-96
2021/11/23 03:59:14;;;;;;;15.68;6.85;;;;;;;7.29;58.86;102250.00;4840865;29;20501;-96
2021/11/23 04:01:39;;;;;;;12.65;7.15;;;;;;;7.29;58.89;102244.78;4840830;29;20037;-96
2021/11/23 04:04:05;;;;;;;13.70;7.63;;;;;;;7.29;59.58;102239.53;4840684;29;20408;-96
2021/11/23 04:06:30;;;;;;;19.95;9.05;;;;;;;7.35;59.34;102239.38;4840754;29;20034;-96
2021/11/23 04:08:56;;;;;;;13.70;7.80;;;;;;;7.30;59.76;102229.03;4840650;29;20026;-96
2021/11/23 04:11:22;;;;;;;13.95;7.75;;;;;;;7.32;58.88;102224.63;4840225;29;20113;-96
2021/11/23 04:13:47;;;;;;;11.52;6.25;;;;;;;7.33;59.16;102222.91;4840515;29;20030;-95
2021/11/23 04:16:13;;;;;;;11.38;6.70;;;;;;;7.31;59.17;102225.53;4840722;29;20097;-96
2021/11/23 04:18:38;;;;;;;15.63;7.47;;;;;;;7.37;59.07;102237.59;4840690;29;20038;-96
2021/11/23 04:21:04;;;;;;;9.55;6.05;;;;;;;7.31;58.85;102235.13;4840324;29;20517;-96
2021/11/23 04:23:30;;;;;;;13.20;7.55;;;;;;;7.26;58.60;102229.16;4840580;29;20038;-96
2021/11/23 04:25:55;;;;;;;16.52;8.15;;;;;;;7.25;58.89;102236.16;4840648;29;20063;-96
2021/11/23 04:28:21;;;;;;;19.23;8.90;;;;;;;7.20;59.19;102238.00;4840473;29;20064;-96
2021/11/23 04:30:47;;;;;;;11.75;7.68;;;;;;;7.23;59.11;102231.88;4840564;29;20082;-95
2021/11/23 04:33:14;;;;;;;15.85;8.20;;;;;;;7.29;59.12;102236.94;4840584;29;20056;-95
2021/11/23 04:35:40;;;;;;;13.55;6.70;;;;;;;7.26;58.47;102235.22;4840013;29;20046;-95
2021/11/23 04:38:08;;;;;;;13.82;7.45;;;;;;;7.19;58.63;102227.59;4840707;29;20034;-95
2021/11/23 04:40:34;;;;;;;12.60;7.15;;;;;;;7.16;57.92;102241.59;4840354;29;20527;-95
2021/11/23 04:42:59;;;;;;;13.07;7.47;;;;;;;7.16;58.74;102244.19;4840007;29;20113;-96
2021/11/23 04:45:24;;;;;;;17.75;8.00;;;;;;;7.21;58.96;102249.31;4840325;29;20034;-96
2021/11/23 04:47:50;;;;;;;15.98;7.72;;;;;;;7.15;58.67;102251.19;4840365;29;20081;-96
2021/11/23 04:50:16;;;;;;;12.50;7.45;;;;;;;7.07;58.30;102247.91;4840726;29;20086;-96
2021/11/23 04:52:42;;;;;;;14.68;7.05;;;;;;;7.11;58.59;102254.78;4843699;29;20397;-96
2021/11/23 04:55:09;;;;;;;13.90;7.28;;;;;;;7.06;58.49;102251.41;4843705;29;20030;-96
2021/11/23 04:57:34;;;;;;;11.20;6.82;;;;;;;7.06;58.44;102247.94;4843843;29;20026;-96
2021/11/23 05:00:00;;;;;;;14.25;7.22;;;;;;;7.10;58.62;102249.56;4843934;29;20094;-96
2021/11/23 05:02:26;;;;;;;13.40;8.65;;;;;;;7.08;58.85;102248.75;4843882;29;20084;-96
2021/11/23 05:04:51;;;;;;;15.18;9.05;;;;;;;7.16;59.26;102249.44;4843775;29;20026;-96
2021/11/23 05:07:17;;;;;;;15.85;9.68;;;;;;;7.18;58.70;102252.00;4843912;29;20069;-95
2021/11/23 05:09:42;;;;;;;18.38;8.93;;;;;;;7.22;58.44;102245.81;4843465;29;20033;-96
2021/11/23 05:12:08;;;;;;;14.02;9.30;;;;;;;7.26;59.17;102240.47;4843556;29;20492;-96
2021/11/23 05:14:33;;;;;;;23.42;8.73;;;;;;;7.29;58.36;102252.63;4843293;29;20443;-96
2021/11/23 05:16:58;;;;;;;14.45;8.65;;;;;;;7.29;58.59;102247.38;4843653;29;20434;-96
2021/11/23 05:19:24;;;;;;;26.65;12.07;;;;;;;7.31;58.82;102245.59;4843624;29;20032;-96
2021/11/23 05:21:49;;;;;;;25.35;12.88;;;;;;;7.29;59.61;102239.53;4843421;29;20094;-96
2021/11/23 05:24:14;;;;;;;30.67;13.63;;;;;;;7.17;59.77;102245.94;4843097;29;20090;-96
2021/11/23 05:26:41;;;;;;;25.85;11.75;;;;;;;7.19;59.79;102235.41;4843215;29;20097;-96
2021/11/23 05:29:06;;;;;;;18.23;10.00;;;;;;;7.22;59.48;102235.34;4843186;29;20501;-96
2021/11/23 05:31:32;;;;;;;17.55;9.43;;;;;;;7.20;59.83;102227.56;4843505;29;20112;-96
2021/11/23 05:33:58;;;;;;;12.32;7.68;;;;;;;7.19;59.54;102228.47;4842999;29;20034;-96
2021/11/23 05:36:24;;;;;;;12.35;7.32;;;;;;;7.17;59.61;102227.66;4842752;29;20026;-96
2021/11/23 05:38:49;;;;;;;10.23;5.85;;;;;;;7.10;59.30;102229.53;4843293;29;20041;-95
2021/11/23 05:41:15;;;;;;;11.60;5.47;;;;;;;7.09;60.14;102225.22;4842911;29;20033;-96
2021/11/23 05:43:40;;;;;;;12.02;5.75;;;;;;;7.19;60.13;102231.06;4842939;29;20037;-96
2021/11/23 05:46:06;;;;;;;6.90;5.00;;;;;;;7.25;59.77;102227.47;4842815;29;20014;-95
2021/11/23 05:48:31;;;;;;;10.00;5.47;;;;;;;7.35;59.74;102228.94;4842791;29;20095;-95
2021/11/23 05:51:02;;;;;;;8.00;5.85;;;;;;;7.34;59.19;102233.28;4842372;29;20085;-95
2021/11/23 05:53:28;;;;;;;16.05;8.45;;;;;;;7.23;59.48;102231.88;4842320;29;20083;-96
2021/11/23 05:55:54;;;;;;;16.40;10.13;;;;;;;7.23;59.20;102235.31;4842651;29;20556;-96
2021/11/23 05:58:19;;;;;;;16.80;9.90;;;;;;;7.27;59.35;102241.34;4842663;29;20072;-95
2021/11/23 06:00:44;;;;;;;20.13;11.90;;;;;;;7.28;59.21;102243.03;4842523;29;20033;-94
2021/11/23 06:03:10;;;;;;;22.65;11.07;;;;;;;7.32;59.28;102237.69;4842371;29;20034;-95
2021/11/23 06:05:35;;;;;;;16.42;10.23;;;;;;;7.30;59.40;102238.63;4842247;29;20030;-96
2021/11/23 06:08:00;;;;;;;16.00;10.10;;;;;;;7.31;59.13;102242.97;4842346;29;20045;-95
2021/11/23 06:10:26;;;;;;;15.40;9.10;;;;;;;7.29;59.17;102244.78;4842506;29;20466;-95
2021/11/23 06:12:51;;;;;;;16.88;9.35;;;;;;;7.25;58.89;102238.75;4842598;29;20175;-96
2021/11/23 06:15:18;;;;;;;15.77;9.38;;;;;;;7.33;58.79;102249.03;4842346;29;20037;-96
2021/11/23 06:17:44;;;;;;;18.65;9.23;;;;;;;7.27;58.91;102244.81;4842261;29;20032;-96
2021/11/23 06:20:10;;;;;;;20.35;9.57;;;;;;;7.15;59.23;102242.50;4842383;29;20116;-96
2021/11/23 06:22:35;;;;;;;19.17;10.15;;;;;;;7.06;59.07;102261.00;4842756;29;20179;-96
2021/11/23 06:25:02;;;;;;;18.42;9.77;;;;;;;7.15;59.56;102247.72;4843009;29;20042;-95
2021/11/23 06:27:29;;;;;;;22.98;11.77;;;;;;;7.20;59.15;102250.22;4843361;29;20381;-95
2021/11/23 06:29:54;;;;;;;21.55;11.55;;;;;;;7.25;59.09;102250.97;4844385;29;20030;-95
2021/11/23 06:32:20;;;;;;;58.05;13.40;;;;;;;7.04;59.45;102242.75;4843858;29;20098;-95
2021/11/23 06:34:45;;;;;;;20.88;13.02;;;;;;;7.06;59.67;102240.09;4842349;29;20590;-96
2021/11/23 06:37:10;;;;;;;21.20;12.93;;;;;;;6.90;60.15;102239.59;4842123;29;20126;-96
2021/11/23 06:39:36;;;;;;;21.70;11.82;;;;;;;7.00;59.93;102235.88;4842197;29;20133;-96
2021/11/23 06:42:01;;;;;;;21.73;12.57;;;;;;;7.04;59.79;102229.69;4842137;29;20078;-95
2021/11/23 06:44:27;;;;;;;18.60;11.50;;;;;;;7.03;59.72;102225.38;4842257;29;20060;-96
2021/11/23 06:46:52;;;;;;;19.10;11.38;;;;;;;7.04;59.49;102227.06;4842280;29;20030;-96
2021/11/23 06:49:18;;;;;;;16.08;10.73;;;;;;;7.02;59.25;102238.47;4841663;29;20637;-96
2021/11/23 06:51:43;;;;;;;16.05;10.15;;;;;;;7.05;59.79;102231.41;4841748;29;20454;-96
2021/11/23 06:54:08;;;;;;;17.55;10.73;;;;;;;7.01;59.45;102235.00;4842008;29;20544;-95
2021/11/23 06:56:34;;;;;;;15.38;8.70;;;;;;;6.98;59.78;102240.28;4841889;29;20089;-96
2021/11/23 06:59:00;;;;;;;12.23;8.15;;;;;;;6.97;59.68;102229.84;4841411;29;20606;-96
2021/11/23 07:01:26;;;;;;;13.27;8.10;;;;;;;6.97;59.92;102229.84;4841370;29;20090;-95
2021/11/23 07:03:51;;;;;;;10.02;6.38;;;;;;;6.97;59.70;102225.53;4841343;29;20478;-96
2021/11/23 07:06:17;;;;;;;13.30;7.30;;;;;;;6.98;59.52;102236.81;4840556;29;20441;-96
2021/11/23 07:08:42;;;;;;;10.75;7.35;;;;;;;6.79;59.99;102223.31;4841218;29;20026;-95
2021/11/23 07:11:08;;;;;;;12.38;7.38;;;;;;;6.92;59.51;102228.22;4841263;29;20026;-95
2021/11/23 07:13:34;;;;;;;13.77;6.82;;;;;;;6.91;59.35;102230.84;4840623;29;20044;-95
2021/11/23 07:16:00;;;;;;;10.23;6.47;;;;;;;6.88;59.55;102220.50;4841439;29;20086;-95
2021/11/23 07:18:26;;;;;;;10.90;5.47;;;;;;;6.87;59.74;102229.22;4841559;29;20037;-96
2021/11/23 07:20:53;;;;;;;7.50;5.07;;;;;;;6.88;59.70;102220.50;4840771;29;20029;-95
2021/11/23 07:23:18;;;;;;;8.98;5.75;;;;;;;6.86;59.57;102222.28;4840816;29;20322;-96
2021/11/23 07:25:43;;;;;;;12.80;6.30;;;;;;;6.92;59.55;102236.06;4841044;29;20470;-95
2021/11/23 07:28:09;;;;;;;8.30;5.20;;;;;;;6.94;59.97;102238.63;4840926;29;20026;-95
2021/11/23 07:30:34;;;;;;;9.48;5.95;;;;;;;7.01;59.77;102231.50;4840848;29;20033;-95
2021/11/23 07:33:00;;;;;;;11.90;6.00;;;;;;;7.07;60.27;102242.69;4841065;29;20086;-95
2021/11/23 07:35:26;;;;;;;11.77;7.10;;;;;;;7.10;59.79;102246.97;4840301;29;20048;-96
2021/11/23 07:37:51;;;;;;;12.63;8.05;;;;;;;7.04;60.81;102255.78;4840857;29;20034;-94
2021/11/23 07:40:17;;;;;;;16.50;7.80;;;;;;;7.12;59.74;102256.47;4841014;29;20022;-96
2021/11/23 07:42:43;;;;;;;11.73;6.57;;;;;;;7.12;59.58;102259.09;4840826;29;20037;-95
2021/11/23 07:45:10;;;;;;;14.00;6.47;;;;;;;7.14;59.85;102262.50;4840924;29;20408;-95
2021/11/23 07:47:36;;;;;;;10.18;5.55;;;;;;;7.06;60.54;102261.84;4840979;29;20120;-96
2021/11/23 07:50:02;;;;;;;10.82;7.00;;;;;;;6.93;59.76;102265.63;4840116;29;20030;-92
2021/11/23 07:52:28;;;;;;;13.82;7.03;;;;;;;6.94;60.31;102267.34;4841013;29;20037;-91
2021/11/23 07:54:53;;;;;;;11.40;7.30;;;;;;;7.08;60.41;102269.66;4841000;29;20385;-91
2021/11/23 07:57:19;;;;;;;12.68;7.72;;;;;;;7.18;59.83;102280.75;4839304;29;20026;-91
2021/11/23 07:59:45;;;;;;;18.98;10.45;;;;;;;7.24;59.84;102280.59;4842077;29;20037;-93
2021/11/23 08:02:10;;;;;;;20.38;12.02;;;;;;;7.31;60.35;102283.03;4839414;29;20037;-92
2021/11/23 08:04:35;;;;;;;17.60;10.25;;;;;;;7.13;61.22;102286.94;4840075;29;20037;-94
2021/11/23 08:07:01;;;;;;;16.38;10.55;;;;;;;7.24;61.20;102293.66;4841089;29;20668;-93
2021/11/23 08:09:26;;;;;;;18.67;9.32;;;;;;;7.45;60.11;102295.75;4840572;29;20026;-94
2021/11/23 08:11:51;;;;;;;14.90;8.52;;;;;;;7.58;59.60;102303.28;4841159;29;20294;-95
2021/11/23 08:14:17;;;;;;;15.48;7.90;;;;;;;7.58;59.82;102298.06;4840030;29;20057;-93
2021/11/23 08:16:42;;;;;;;17.55;9.40;;;;;;;7.64;60.08;102301.41;4848386;29;20081;-94
2021/11/23 08:19:08;;;;;;;21.05;11.00;;;;;;;7.66;59.50;102303.94;4853174;29;20026;-94
2021/11/23 08:21:33;;;;;;;21.00;9.93;;;;;;;7.64;59.80;102311.84;4839991;29;20037;-95
2021/11/23 08:23:59;;;;;;;20.67;10.27;;;;;;;7.68;59.81;102296.91;4839359;29;20038;-92
2021/11/23 08:26:25;;;;;;;17.83;10.55;;;;;;;7.81;60.64;102294.88;4843558;29;20026;-93
2021/11/23 08:28:51;;;;;;;22.27;12.45;;;;;;;7.81;59.63;102303.56;4844328;29;20090;-91
2021/11/23 08:31:16;;;;;;;24.83;14.13;;;;;;;7.79;59.60;102302.75;4843862;29;20030;-94
2021/11/23 08:33:42;;;;;;;26.27;13.30;;;;;;;7.99;60.24;102303.97;4843263;29;20026;-92
2021/11/23 08:36:08;;;;;;;35.13;14.35;;;;;;;8.03;59.85;102297.75;4846292;29;20120;-93
2021/11/23 08:38:35;;;;;;;23.02;11.57;;;;;;;8.20;59.96;102295.56;4844788;29;20064;-91
2021/11/23 08:41:01;;;;;;;25.15;13.00;;;;;;;8.24;60.05;102307.66;4862180;29;20039;-95
2021/11/23 08:43:26;;;;;;;29.70;13.85;;;;;;;8.34;60.30;102309.09;4862381;29;20021;-94
2021/11/23 08:45:52;;;;;;;25.80;13.27;;;;;;;8.39;60.15;102305.50;4855301;29;20484;-93
2021/11/23 08:48:17;;;;;;;20.40;11.20;;;;;;;8.42;60.19;102300.22;4853170;29;20039;-93
2021/11/23 08:50:43;;;;;;;26.40;13.18;;;;;;;8.55;59.36;102309.44;4842633;29;20034;-93
2021/11/23 08:53:09;;;;;;;20.27;13.13;;;;;;;8.62;59.42;102307.50;4849975;29;20456;-93
2021/11/23 08:55:36;;;;;;;25.83;13.98;;;;;;;8.55;59.94;102312.06;4838931;29;20083;-93
2021/11/23 08:58:03;;;;;;;21.20;13.40;;;;;;;8.51;59.87;102305.16;4851753;29;20345;-93
2021/11/23 09:00:28;;;;;;;25.90;14.63;;;;;;;8.57;60.55;102307.63;4845879;29;20054;-95
2021/11/23 09:02:59;;;;;;;27.40;15.25;;;;;;;8.44;60.27;102311.50;4853297;29;20465;-96
2021/11/23 09:05:27;;;;;;;29.48;15.70;;;;;;;8.52;60.69;102318.22;4843812;29;20675;-95
2021/11/23 09:07:53;;;;;;;24.73;14.90;;;;;;;8.77;60.23;102314.00;4848886;29;20048;-96
2021/11/23 09:10:22;;;;;;;26.48;15.23;;;;;;;9.09;58.75;102319.16;4853776;29;20029;-96
2021/11/23 09:12:54;;;;;;;21.73;14.00;;;;;;;9.10;58.85;102320.00;4858264;29;20042;-96
2021/11/23 09:15:20;;;;;;;27.85;16.30;;;;;;;9.19;58.03;102318.88;4851722;29;20052;-95
2021/11/23 09:17:46;;;;;;;23.88;14.65;;;;;;;9.10;57.58;102315.63;4852641;29;20485;-95
2021/11/23 09:20:13;;;;;;;26.42;15.93;;;;;;;9.17;58.61;102320.69;4854814;29;20033;-94
2021/11/23 09:22:40;;;;;;;27.50;14.60;;;;;;;9.06;59.54;102323.63;4860252;29;20036;-91
2021/11/23 09:25:06;;;;;;;29.35;15.18;;;;;;;9.08;58.90;102330.56;4853638;29;20110;-91
2021/11/23 09:27:32;;;;;;;31.17;16.15;;;;;;;9.31;58.53;102334.19;4848041;29;20037;-91
2021/11/23 09:29:58;;;;;;;24.75;14.43;;;;;;;9.26;58.19;102330.84;4843729;29;20041;-92
2021/11/23 09:32:24;;;;;;;24.20;14.38;;;;;;;9.22;59.06;102324.88;4850367;29;20039;-91
2021/11/23 09:34:49;;;;;;;24.52;15.02;;;;;;;9.25;58.87;102330.00;4845907;29;20391;-92
2021/11/23 09:37:15;;;;;;;28.48;16.33;;;;;;;9.31;59.58;102327.19;4852261;29;20082;-91
2021/11/23 09:39:40;;;;;;;23.17;14.07;;;;;;;9.43;59.19;102333.81;4846348;29;20503;-91
2021/11/23 09:42:06;;;;;;;21.00;14.00;;;;;;;9.58;59.62;102332.47;4850846;29;20377;-92
2021/11/23 09:44:31;;;;;;;26.95;15.43;;;;;;;9.71;59.43;102319.78;4844546;29;20026;-91
2021/11/23 09:46:57;;;;;;;25.58;15.45;;;;;;;9.76;58.97;102319.63;4845188;29;20110;-92
2021/11/23 09:49:22;;;;;;;23.08;14.25;;;;;;;9.86;59.38;102321.88;4854069;29;20481;-92
2021/11/23 09:51:48;;;;;;;22.10;14.00;;;;;;;9.94;59.26;102319.00;4842735;29;20116;-91
2021/11/23 09:54:14;;;;;;;21.65;14.65;;;;;;;10.03;59.14;102325.69;4852458;29;20038;-91
2021/11/23 09:56:44;;;;;;;27.58;14.90;;;;;;;10.30;58.03;102327.34;4853333;29;20030;-92
2021/11/23 09:59:10;;;;;;;29.30;14.93;;;;;;;10.42;58.00;102327.84;4855218;29;20033;-92
2021/11/23 10:01:55;;;;;;;25.05;13.80;;;;;;;10.42;57.91;102322.56;4851832;29;20036;-91
2021/11/23 10:04:23;;;;;;;28.25;15.98;;;;;;;10.38;56.92;102327.09;4842448;29;20400;-91
2021/11/23 10:07:00;;;;;;;29.42;14.57;;;;;;;10.27;57.70;102332.69;4853611;29;20045;-90
2021/11/23 10:09:39;;;;;;;21.48;13.95;;;;;;;10.31;57.93;102323.84;4849293;29;20029;-91
2021/11/23 10:12:34;;;;;;;23.05;13.02;;;;;;;10.49;58.08;102331.97;4862996;29;20037;-91
2021/11/23 10:15:08;;;;;;;17.48;12.20;;;;;;;10.49;58.23;102331.97;4829671;29;20516;-92
2021/11/23 10:17:34;;;;;;;23.65;12.85;;;;;;;10.54;57.68;102337.88;4854713;29;20388;-92
2021/11/23 10:20:00;;;;;;;24.08;14.30;;;;;;;10.46;58.38;102332.06;4847123;29;20573;-93
2021/11/23 10:22:32;;;;;;;18.35;13.40;;;;;;;10.57;58.65;102339.56;4850909;29;20061;-96
2021/11/23 10:25:03;;;;;;;26.60;13.77;;;;;;;10.52;58.97;102337.09;4863481;29;20033;-95
2021/11/23 10:27:28;;;;;;;23.48;13.88;;;;;;;10.60;58.77;102335.03;4856765;29;20061;-94
2021/11/23 10:29:54;;;;;;;25.77;14.13;;;;;;;10.76;58.22;102330.03;4856958;29;20061;-95
2021/11/23 10:32:19;;;;;;;21.25;13.63;;;;;;;10.78;58.01;102323.00;4843255;29;20405;-96
2021/11/23 10:34:45;;;;;;;18.08;12.43;;;;;;;10.93;58.71;102336.44;4843430;29;20034;-94
2021/11/23 10:37:31;;;;;;;19.35;13.25;;;;;;;11.16;58.24;102328.53;4846196;29;20069;-95
2021/11/23 10:40:13;;;;;;;21.30;13.25;;;;;;;11.06;58.55;102317.50;4847920;29;20055;-95
2021/11/23 10:42:39;;;;;;;19.45;12.65;;;;;;;11.17;57.93;102311.81;4846688;29;20022;-95
2021/11/23 10:45:09;;;;;;;15.98;12.18;;;;;;;11.27;58.03;102315.78;4846473;29;20038;-94
2021/11/23 10:47:40;;;;;;;19.70;12.27;;;;;;;11.33;57.92;102312.06;4839876;29;20018;-94
2021/11/23 10:50:09;;;;;;;16.65;12.30;;;;;;;11.57;57.25;102302.31;4845138;29;20034;-94
2021/11/23 10:52:47;;;;;;;18.75;13.18;;;;;;;11.67;55.72;102302.75;4851006;29;20499;-92
2021/11/23 10:55:32;;;;;;;26.38;14.15;;;;;;;11.75;55.71;102305.94;4846936;29;20073;-93
2021/11/23 10:58:01;;;;;;;21.38;12.70;;;;;;;11.73;55.94;102306.91;4846180;29;20054;-91
2021/11/23 11:00:30;;;;;;;20.10;12.38;;;;;;;11.77;56.48;102301.47;4843164;29;20501;-94
2021/11/23 11:03:03;;;;;;;17.63;12.40;;;;;;;11.56;56.87;102305.00;4842504;29;20033;-96
2021/11/23 11:05:35;;;;;;;21.85;12.80;;;;;;;11.67;56.61;102301.00;4841783;29;20041;-96
2021/11/23 11:08:01;;;;;;;;;;;;;;;11.64;57.10;102305.53;4841361;29;20038;-94
2021/11/23 11:10:28;;;;;;;19.45;12.73;;;;;;;11.56;57.40;102299.75;4851146;29;20412;-94
2021/11/23 11:12:53;;;;;;;20.33;11.85;;;;;;;11.85;56.32;102295.88;4844857;29;20061;-94
2021/11/23 11:15:26;;;;;;;23.65;13.05;;;;;;;11.77;56.50;102282.16;4851124;29;20106;-95
2021/11/23 11:17:52;;;;;;;21.80;13.60;;;;;;;11.70;55.82;102286.84;4842009;29;20037;-96